createdAt,value
2019-04-30T03:18:59.517Z,11.05
2019-04-30T03:21:46.124Z,12.28
2019-04-30T03:28:34.826Z,11.40
2019-04-30T03:41:53.215Z,12.58
2019-04-30T04:39:45.046Z,11.00
2019-04-30T04:42:19.850Z,10.20
2019-04-30T04:44:59.454Z,10.38
2019-04-30T04:47:34.720Z,10.08
2019-04-30T04:50:14.897Z,10.08
2019-04-30T04:52:54.775Z,8.70
2019-04-30T04:55:30.651Z,9.40
2019-04-30T04:58:09.684Z,9.18
2019-04-30T05:00:49.280Z,8.93
2019-04-30T05:03:36.093Z,8.38
2019-04-30T05:06:11.842Z,8.30
2019-04-30T05:08:49.344Z,8.60
2019-04-30T05:11:24.967Z,7.45
2019-04-30T05:14:06.039Z,8.68
2019-04-30T05:16:40.491Z,7.17
2019-04-30T05:19:18.657Z,7.45
2019-04-30T05:21:54.010Z,7.60
2019-04-30T05:24:28.982Z,7.50
2019-04-30T05:27:04.711Z,7.78
2019-04-30T05:29:41.558Z,7.17
2019-04-30T05:32:19.590Z,8.03
2019-04-30T05:34:54.300Z,7.90
2019-04-30T05:37:39.326Z,7.97
2019-04-30T05:40:15.380Z,7.60
2019-04-30T05:42:52.849Z,8.30
2019-04-30T05:45:30.121Z,7.78
2019-04-30T05:48:05.640Z,6.95
2019-04-30T05:50:43.026Z,8.35
2019-04-30T05:53:21.908Z,7.55
2019-04-30T05:55:59.189Z,7.03
2019-04-30T05:58:34.376Z,7.05
2019-04-30T06:01:19.590Z,7.20
2019-04-30T06:03:56.365Z,6.53
2019-04-30T06:06:33.580Z,7.55
2019-04-30T06:09:14.869Z,7.67
2019-04-30T06:11:51.036Z,7.33
2019-04-30T06:14:28.520Z,7.67
2019-04-30T06:17:19.739Z,6.65
2019-04-30T06:19:54.226Z,7.08
2019-04-30T06:22:28.891Z,7.78
2019-04-30T06:25:05.472Z,7.95
2019-04-30T06:27:39.218Z,8.38
2019-04-30T06:30:13.925Z,9.18
2019-04-30T06:32:49.651Z,8.28
2019-04-30T06:35:29.574Z,9.18
2019-04-30T06:38:03.995Z,8.40
2019-04-30T06:40:42.516Z,8.98
2019-04-30T06:43:19.237Z,8.98
2019-04-30T06:45:55.946Z,8.75
2019-04-30T06:48:32.380Z,9.35
2019-04-30T06:51:09.110Z,9.83
2019-04-30T06:53:43.402Z,9.05
2019-04-30T06:56:30.516Z,8.43
2019-04-30T06:59:09.232Z,8.88
2019-04-30T07:01:51.464Z,9.40
2019-04-30T07:04:29.208Z,9.90
2019-04-30T07:07:04.087Z,8.68
2019-04-30T07:09:53.141Z,8.80
2019-04-30T07:12:45.419Z,8.80
2019-04-30T07:15:31.792Z,8.25
2019-04-30T07:18:08.984Z,8.58
2019-04-30T07:20:44.661Z,8.48
2019-04-30T07:23:28.538Z,9.20
2019-04-30T07:26:05.580Z,8.73
2019-04-30T07:28:44.850Z,8.25
2019-04-30T07:31:15.454Z,9.15
2019-04-30T07:33:53.449Z,8.80
2019-04-30T07:36:43.304Z,9.48
2019-04-30T07:39:03.936Z,10.08
2019-04-30T07:41:40.257Z,9.80
2019-04-30T07:44:30.182Z,10.15
2019-04-30T07:46:52.861Z,10.30
2019-04-30T07:49:46.165Z,10.82
2019-04-30T07:52:04.888Z,11.12
2019-04-30T07:54:41.574Z,10.68
2019-04-30T07:57:16.713Z,10.93
2019-04-30T08:00:00.999Z,11.45
2019-04-30T08:02:40.871Z,11.83
2019-04-30T08:05:23.084Z,11.90
2019-04-30T08:09:35.581Z,12.35
2019-04-30T08:10:33.394Z,13.93
2019-04-30T08:13:13.722Z,13.95
2019-04-30T08:15:46.017Z,16.20
2019-04-30T08:18:20.810Z,14.05
2019-04-30T08:20:55.658Z,13.20
2019-04-30T08:23:36.921Z,12.98
2019-04-30T08:26:08.869Z,13.62
2019-04-30T08:28:45.625Z,13.90
2019-04-30T08:31:20.182Z,13.03
2019-04-30T08:34:00.214Z,13.05
2019-04-30T08:36:35.046Z,12.43
2019-04-30T08:39:11.036Z,12.63
2019-04-30T08:41:49.223Z,11.18
2019-04-30T08:44:23.602Z,11.65
2019-04-30T08:46:59.214Z,12.30
2019-04-30T08:49:34.632Z,11.70
2019-04-30T08:52:10.674Z,11.22
2019-04-30T08:54:50.846Z,11.30
2019-04-30T08:57:27.010Z,11.95
2019-04-30T09:00:02.930Z,11.55
2019-04-30T09:02:38.808Z,11.20
2019-04-30T09:05:32.880Z,11.22
2019-04-30T09:10:44.515Z,10.72
2019-04-30T09:13:20.010Z,11.30
2019-04-30T09:15:55.682Z,11.43
2019-04-30T09:18:29.962Z,12.25
2019-04-30T09:21:08.983Z,15.05
2019-04-30T09:23:49.915Z,12.58
2019-04-30T09:26:19.787Z,12.45
2019-04-30T09:28:54.149Z,11.93
2019-04-30T09:31:30.215Z,11.63
2019-04-30T09:34:15.260Z,12.45
2019-04-30T09:36:42.480Z,12.40
2019-04-30T09:39:19.916Z,10.95
2019-04-30T09:41:53.648Z,10.20
2019-04-30T09:44:30.474Z,10.55
2019-04-30T09:47:08.879Z,10.75
2019-04-30T09:49:43.506Z,10.65
2019-04-30T09:52:19.264Z,11.28
2019-04-30T09:54:54.576Z,10.82
2019-04-30T09:57:33.834Z,11.03
2019-04-30T10:00:15.757Z,12.18
2019-04-30T10:02:52.803Z,12.18
2019-04-30T10:05:31.879Z,11.65
2019-04-30T10:08:09.422Z,12.00
2019-04-30T10:10:48.606Z,11.95
2019-04-30T10:13:23.725Z,11.33
2019-04-30T10:16:02.288Z,11.85
2019-04-30T10:18:45.817Z,11.38
2019-04-30T10:21:29.017Z,11.43
2019-04-30T10:24:13.127Z,11.67
2019-04-30T10:26:39.902Z,10.85
2019-04-30T10:29:14.344Z,11.33
2019-04-30T10:31:52.955Z,10.80
2019-04-30T10:34:27.249Z,10.60
2019-04-30T10:37:02.925Z,10.95
2019-04-30T10:39:38.997Z,10.82
2019-04-30T10:42:13.942Z,10.55
2019-04-30T10:44:48.459Z,10.65
2019-04-30T10:47:23.171Z,10.38
2019-04-30T10:49:58.547Z,12.45
2019-04-30T10:52:33.520Z,11.80
2019-04-30T10:55:10.178Z,12.33
2019-04-30T10:57:44.609Z,12.07
2019-04-30T11:00:19.398Z,10.88
2019-04-30T11:02:54.018Z,11.03
2019-04-30T11:05:32.053Z,10.90
2019-04-30T11:08:07.649Z,11.18
2019-04-30T11:10:42.090Z,12.00
2019-04-30T11:13:16.611Z,10.90
2019-04-30T11:15:51.139Z,9.58
2019-04-30T11:18:25.870Z,10.50
2019-04-30T11:21:01.975Z,10.60
2019-04-30T11:23:39.606Z,10.40
2019-04-30T11:26:14.382Z,10.23
2019-04-30T11:28:53.871Z,11.75
2019-04-30T11:31:30.978Z,10.68
2019-04-30T11:34:07.772Z,11.73
2019-04-30T11:36:44.659Z,11.18
2019-04-30T11:39:24.223Z,9.98
2019-04-30T11:42:02.968Z,11.38
2019-04-30T11:44:43.723Z,10.43
2019-04-30T11:47:35.730Z,10.20
2019-04-30T11:53:22.136Z,12.58
2019-04-30T11:55:42.838Z,10.18
2019-04-30T11:58:22.090Z,9.80
2019-04-30T12:00:57.069Z,10.08
2019-04-30T12:03:31.431Z,10.72
2019-04-30T12:06:08.619Z,11.10
2019-04-30T12:08:49.575Z,11.70
2019-04-30T12:14:20.227Z,13.28
2019-04-30T12:16:56.968Z,10.23
2019-04-30T12:19:38.838Z,10.53
2019-04-30T12:22:20.313Z,11.05
2019-04-30T12:25:03.337Z,11.25
2019-04-30T12:27:36.360Z,12.13
2019-04-30T12:30:12.512Z,10.88
2019-04-30T12:32:51.871Z,8.98
2019-04-30T12:35:37.612Z,10.58
2019-04-30T12:38:18.941Z,12.45
2019-04-30T12:40:57.887Z,13.80
2019-04-30T12:43:38.256Z,16.27
2019-04-30T12:49:06.910Z,13.40
2019-04-30T12:51:48.837Z,14.93
2019-04-30T12:54:33.049Z,13.78
2019-04-30T12:57:19.227Z,13.00
2019-04-30T13:00:09.471Z,13.00
2019-04-30T13:02:45.427Z,12.35
2019-04-30T13:05:24.374Z,12.47
2019-04-30T13:08:10.962Z,20.35
2019-04-30T13:10:51.275Z,13.10
2019-04-30T13:13:31.465Z,11.63
2019-04-30T13:19:06.277Z,12.60
2019-04-30T13:21:43.835Z,13.28
2019-04-30T13:24:35.266Z,14.07
2019-04-30T13:27:11.541Z,15.70
2019-04-30T13:30:09.510Z,14.30
2019-04-30T13:32:49.407Z,13.83
2019-04-30T13:35:30.708Z,11.38
2019-04-30T13:38:13.249Z,11.80
2019-04-30T13:41:20.026Z,12.53
2019-04-30T13:43:58.749Z,12.25
2019-04-30T13:46:41.352Z,12.53
2019-04-30T13:49:35.742Z,13.18
2019-04-30T13:52:12.405Z,12.37
2019-04-30T13:54:48.641Z,11.40
2019-04-30T13:57:38.112Z,12.10
2019-04-30T14:00:18.521Z,12.37
2019-04-30T14:03:04.795Z,12.10
2019-04-30T14:05:45.682Z,11.18
2019-04-30T14:08:26.430Z,11.78
2019-04-30T14:11:02.943Z,10.23
2019-04-30T14:13:38.722Z,10.75
2019-04-30T14:16:25.119Z,12.85
2019-04-30T14:21:42.456Z,11.75
2019-04-30T14:24:24.206Z,13.45
2019-04-30T14:26:59.276Z,12.73
2019-04-30T14:29:35.524Z,13.78
2019-04-30T14:32:13.743Z,12.75
2019-04-30T14:34:51.284Z,12.65
2019-04-30T14:37:31.870Z,11.30
2019-04-30T14:40:11.920Z,10.45
2019-04-30T14:42:59.464Z,9.90
2019-04-30T14:45:37.926Z,10.15
2019-04-30T14:48:14.491Z,10.48
2019-04-30T14:51:06.532Z,10.80
2019-04-30T14:57:04.092Z,10.00
2019-04-30T15:00:04.604Z,10.53
2019-04-30T15:02:41.265Z,11.15
2019-04-30T15:05:19.560Z,10.63
2019-04-30T15:08:00.696Z,11.48
2019-04-30T15:10:39.324Z,11.90
2019-04-30T15:13:19.382Z,11.25
2019-04-30T15:15:57.872Z,11.83
2019-04-30T15:18:38.766Z,11.88
2019-04-30T15:21:21.921Z,12.97
2019-04-30T15:24:04.639Z,12.33
2019-04-30T15:26:41.547Z,12.73
2019-04-30T15:29:19.054Z,13.13
2019-04-30T15:32:00.648Z,12.13
2019-04-30T15:34:36.445Z,13.72
2019-04-30T15:37:21.150Z,12.70
2019-04-30T15:45:43.787Z,12.25
2019-04-30T15:48:24.788Z,13.08
2019-04-30T15:51:16.817Z,14.78
2019-04-30T15:53:56.853Z,14.23
2019-04-30T15:56:36.953Z,15.13
2019-04-30T15:59:20.185Z,13.60
2019-04-30T16:02:03.616Z,13.58
2019-04-30T16:05:01.598Z,13.80
2019-04-30T16:10:48.656Z,15.40
2019-04-30T16:13:33.662Z,15.13
2019-04-30T16:16:13.248Z,15.25
2019-04-30T16:18:52.014Z,14.90
2019-04-30T16:21:41.932Z,15.18
2019-04-30T16:24:28.752Z,15.25
2019-04-30T16:27:04.933Z,16.50
2019-04-30T16:29:40.711Z,15.68
2019-04-30T16:32:16.540Z,16.62
2019-04-30T16:34:52.178Z,14.47
2019-04-30T16:37:28.810Z,14.47
2019-04-30T16:40:19.017Z,15.28
2019-04-30T16:42:53.668Z,17.45
2019-04-30T16:45:31.506Z,16.07
2019-04-30T16:48:12.017Z,16.27
2019-04-30T16:50:48.930Z,16.97
2019-04-30T16:53:25.218Z,17.42
2019-04-30T16:56:04.320Z,16.95
2019-04-30T16:58:56.355Z,17.90
2019-04-30T17:01:35.146Z,16.80
2019-04-30T17:04:14.836Z,17.00
2019-04-30T17:06:53.225Z,18.15
2019-04-30T17:09:30.045Z,18.65
2019-04-30T17:12:10.039Z,16.80
2019-04-30T17:14:45.166Z,17.73
2019-04-30T17:17:32.845Z,19.02
2019-04-30T17:20:08.706Z,19.27
2019-04-30T17:22:45.765Z,18.32
2019-04-30T17:25:20.456Z,19.80
2019-04-30T17:28:01.645Z,18.92
2019-04-30T17:30:36.274Z,19.55
2019-04-30T17:33:14.986Z,20.37
2019-04-30T17:35:49.862Z,21.42
2019-04-30T17:38:27.281Z,21.30
2019-04-30T17:41:01.292Z,22.10
2019-04-30T17:43:36.921Z,20.57
2019-04-30T17:46:11.475Z,18.70
2019-04-30T17:48:46.912Z,19.57
2019-04-30T17:51:22.891Z,23.73
2019-04-30T17:54:16.217Z,19.30
2019-04-30T17:56:50.379Z,19.73
2019-04-30T17:59:27.501Z,18.80
2019-04-30T18:02:05.167Z,18.07
2019-04-30T18:04:39.973Z,17.40
2019-04-30T18:07:14.551Z,16.73
2019-04-30T18:09:49.536Z,16.20
2019-04-30T18:12:23.909Z,16.05
2019-04-30T18:14:59.970Z,16.12
2019-04-30T18:17:34.066Z,15.80
2019-04-30T18:20:13.383Z,19.87
2019-04-30T18:22:56.194Z,16.00
2019-04-30T18:25:43.905Z,14.65
2019-04-30T18:28:19.074Z,14.68
2019-04-30T18:30:53.637Z,14.60
2019-04-30T18:33:27.931Z,14.45
2019-04-30T18:36:02.331Z,14.38
2019-04-30T18:38:36.800Z,15.80
2019-04-30T18:41:11.283Z,15.58
2019-04-30T18:43:45.772Z,15.20
2019-04-30T18:46:20.521Z,16.45
2019-04-30T18:48:54.537Z,15.00
2019-04-30T18:51:38.451Z,14.28
2019-04-30T18:54:04.630Z,13.98
2019-04-30T18:56:40.623Z,14.83
2019-04-30T18:59:19.635Z,14.47
2019-04-30T19:01:53.713Z,15.58
2019-04-30T19:04:28.838Z,19.87
2019-04-30T19:07:04.322Z,18.77
2019-04-30T19:09:55.536Z,20.97
2019-04-30T19:12:33.597Z,19.67
2019-04-30T19:15:40.958Z,17.45
2019-04-30T19:18:01.293Z,17.85
2019-04-30T19:20:38.453Z,18.23
2019-04-30T19:23:12.451Z,16.23
2019-04-30T19:25:48.581Z,16.67
2019-04-30T19:28:22.401Z,17.60
2019-04-30T19:30:58.861Z,17.73
2019-04-30T19:33:32.492Z,22.20
2019-04-30T19:36:09.745Z,24.95
2019-04-30T19:38:44.868Z,21.75
2019-04-30T19:41:19.117Z,16.00
2019-04-30T19:43:53.410Z,22.00
2019-04-30T19:46:29.321Z,18.27
2019-04-30T19:49:02.938Z,17.95
2019-04-30T19:51:37.460Z,22.15
2019-04-30T19:54:12.915Z,19.55
2019-04-30T19:56:47.428Z,19.15
2019-04-30T19:59:21.929Z,19.70
2019-04-30T20:01:56.076Z,19.37
2019-04-30T20:04:34.096Z,19.45
2019-04-30T20:07:08.800Z,25.23
2019-04-30T20:09:43.310Z,22.22
2019-04-30T20:12:18.823Z,17.80
2019-04-30T20:14:53.583Z,16.62
2019-04-30T20:17:29.566Z,19.65
2019-04-30T20:20:03.861Z,19.20
2019-04-30T20:22:40.311Z,18.98
2019-04-30T20:25:15.073Z,18.05
2019-04-30T20:27:49.611Z,17.17
2019-04-30T20:30:24.556Z,19.12
2019-04-30T20:32:59.396Z,17.67
2019-04-30T20:35:34.175Z,18.42
2019-04-30T20:38:25.464Z,18.05
2019-04-30T20:41:02.771Z,17.25
2019-04-30T20:43:35.101Z,19.30
2019-04-30T20:46:09.462Z,18.23
2019-04-30T20:48:43.783Z,18.42
2019-04-30T20:51:19.589Z,16.70
2019-04-30T20:53:53.933Z,17.90
2019-04-30T20:56:29.112Z,18.35
2019-04-30T20:59:06.441Z,18.92
2019-04-30T21:01:39.313Z,18.32
2019-04-30T21:04:14.010Z,17.77
2019-04-30T21:06:49.663Z,19.52
2019-04-30T21:09:23.796Z,19.77
2019-04-30T21:11:59.761Z,20.12
2019-04-30T21:14:33.933Z,20.68
2019-04-30T21:17:07.881Z,20.50
2019-04-30T21:22:16.405Z,20.57
2019-04-30T21:24:50.615Z,20.60
2019-04-30T21:27:25.219Z,20.25
2019-04-30T21:30:00.821Z,21.48
2019-04-30T21:32:52.358Z,20.97
2019-04-30T21:35:27.557Z,22.32
2019-04-30T21:38:03.142Z,24.60
2019-04-30T21:40:39.317Z,23.10
2019-04-30T21:43:13.908Z,25.72
2019-04-30T21:45:49.363Z,23.85
2019-04-30T21:48:23.786Z,24.50
2019-04-30T21:50:59.192Z,24.65
2019-04-30T21:53:33.271Z,24.80
2019-04-30T21:56:07.675Z,24.10
2019-04-30T21:58:42.454Z,23.92
2019-04-30T22:01:17.896Z,23.27
2019-04-30T22:03:52.878Z,24.52
2019-04-30T22:06:29.429Z,23.62
2019-04-30T22:09:02.344Z,24.40
2019-04-30T22:11:39.344Z,23.92
2019-04-30T22:14:13.108Z,25.80
2019-04-30T22:16:49.323Z,24.67
2019-04-30T22:19:22.821Z,24.98
2019-04-30T22:21:59.360Z,24.40
2019-04-30T22:24:33.071Z,25.17
2019-04-30T22:27:07.178Z,23.75
2019-04-30T22:29:42.282Z,24.15
2019-04-30T22:32:16.538Z,24.25
2019-04-30T22:34:51.001Z,27.10
2019-04-30T22:37:25.342Z,27.25
2019-04-30T22:40:04.018Z,26.62
2019-04-30T22:42:39.789Z,24.20
2019-04-30T22:45:15.111Z,25.20
2019-04-30T22:47:50.539Z,26.68
2019-04-30T22:50:25.043Z,24.65
2019-04-30T22:52:59.512Z,24.35
2019-04-30T22:55:33.971Z,25.05
2019-04-30T22:58:08.611Z,25.52
2019-04-30T23:00:46.979Z,25.12
2019-04-30T23:03:23.460Z,26.95
2019-04-30T23:06:01.611Z,25.10
2019-04-30T23:08:33.794Z,25.32
2019-04-30T23:11:08.455Z,25.65
2019-04-30T23:13:43.084Z,24.85
2019-04-30T23:16:17.412Z,26.75
2019-04-30T23:18:52.945Z,24.63
2019-04-30T23:21:27.356Z,24.92
2019-04-30T23:24:01.681Z,24.15
2019-04-30T23:26:35.826Z,25.27
2019-04-30T23:29:10.434Z,24.18
2019-04-30T23:31:44.863Z,23.42
2019-04-30T23:34:18.956Z,24.02
2019-04-30T23:36:53.215Z,24.92
2019-04-30T23:39:27.626Z,24.20
2019-04-30T23:42:02.248Z,23.25
2019-04-30T23:44:37.189Z,23.07
2019-04-30T23:47:11.532Z,24.07
2019-04-30T23:49:46.195Z,24.43
2019-04-30T23:52:21.120Z,24.80
2019-04-30T23:54:55.672Z,24.72
2019-04-30T23:57:30.376Z,25.23
